createdAt,value
2023-03-26T00:00:00.308Z,1.2
2023-03-26T00:01:00.612Z,1.2
2023-03-26T00:02:00.310Z,1.2
2023-03-26T00:03:00.291Z,1.2
2023-03-26T00:04:00.279Z,1.2
2023-03-26T00:05:00.272Z,1.2
2023-03-26T00:06:01.477Z,1.2
2023-03-26T00:07:00.280Z,1.2
2023-03-26T00:08:00.261Z,1.2
2023-03-26T00:09:00.267Z,1.2
2023-03-26T00:10:00.269Z,1.2
2023-03-26T00:11:01.246Z,1.2
2023-03-26T00:12:00.266Z,1.2
2023-03-26T00:13:00.255Z,1.2
2023-03-26T00:14:00.311Z,1.2
2023-03-26T00:15:00.265Z,1.2
2023-03-26T00:16:00.267Z,1.2
2023-03-26T00:17:00.285Z,1.2
2023-03-26T00:18:00.777Z,1.2
2023-03-26T00:19:00.459Z,1.2
2023-03-26T00:20:00.279Z,1.2
2023-03-26T00:21:01.784Z,1.2
2023-03-26T00:22:00.278Z,1.2
2023-03-26T00:23:00.276Z,1.2
2023-03-26T00:24:01.963Z,1.2
2023-03-26T00:25:00.261Z,1.2
2023-03-26T00:26:01.300Z,1.2
2023-03-26T00:27:00.260Z,1.2
2023-03-26T00:28:00.266Z,1.2
2023-03-26T00:29:00.334Z,1.2
2023-03-26T00:30:00.286Z,1.2
2023-03-26T00:31:01.450Z,1.2
2023-03-26T00:32:00.577Z,1.2
2023-03-26T00:33:01.715Z,1.2
2023-03-26T00:34:00.741Z,1.2
2023-03-26T00:35:00.268Z,1.2
2023-03-26T00:36:02.477Z,1.1
2023-03-26T00:37:00.278Z,1.1
2023-03-26T00:38:00.354Z,1.1
2023-03-26T00:39:00.365Z,1.1
2023-03-26T00:40:00.826Z,1.1
2023-03-26T00:41:00.271Z,1.1
2023-03-26T00:42:00.296Z,1.1
2023-03-26T00:43:00.276Z,1.1
2023-03-26T00:44:00.296Z,1.1
2023-03-26T00:45:00.329Z,1.1
2023-03-26T00:46:00.661Z,1.1
2023-03-26T00:47:00.302Z,1.1
2023-03-26T00:48:00.975Z,1.1
2023-03-26T00:49:00.289Z,1.1
2023-03-26T00:50:00.327Z,1.1
2023-03-26T00:51:00.283Z,1.1
2023-03-26T00:52:00.281Z,1.1
2023-03-26T00:53:00.273Z,1.1
2023-03-26T00:54:00.294Z,1.1
2023-03-26T00:55:00.359Z,1.1
2023-03-26T00:56:00.408Z,1.0
2023-03-26T00:57:00.335Z,1.0
2023-03-26T00:58:00.461Z,1.0
2023-03-26T00:59:00.370Z,1.0
2023-03-26T01:00:00.293Z,1.0
2023-03-26T01:01:01.588Z,1.0
2023-03-26T01:02:00.781Z,1.0
2023-03-26T01:03:00.969Z,1.0
2023-03-26T01:04:10.284Z,1.0
2023-03-26T01:05:10.257Z,1.0
2023-03-26T01:06:01.574Z,1.0
2023-03-26T01:07:01.864Z,1.0
2023-03-26T01:08:10.208Z,1.0
2023-03-26T01:09:02.261Z,1.0
2023-03-26T01:10:00.341Z,1.0
2023-03-26T01:11:03.142Z,1.0
2023-03-26T01:12:01.555Z,1.0
2023-03-26T01:13:00.311Z,1.0
2023-03-26T01:14:01.320Z,1.0
2023-03-26T01:15:00.977Z,1.0
2023-03-26T01:16:00.345Z,1.4
2023-03-26T01:17:01.500Z,1.4
2023-03-26T01:18:00.592Z,1.4
2023-03-26T01:19:00.288Z,1.4
2023-03-26T01:20:10.140Z,1.4
2023-03-26T01:21:01.313Z,1.4
2023-03-26T01:22:00.299Z,1.4
2023-03-26T01:23:02.242Z,1.4
2023-03-26T01:24:00.296Z,1.4
2023-03-26T01:25:00.292Z,1.4
2023-03-26T01:26:04.414Z,1.4
2023-03-26T01:27:06.848Z,1.4
2023-03-26T01:28:00.373Z,1.4
2023-03-26T01:29:02.009Z,1.4
2023-03-26T01:30:00.281Z,1.4
2023-03-26T01:31:08.771Z,1.4
2023-03-26T01:32:10.295Z,1.4
2023-03-26T01:33:04.508Z,1.4
2023-03-26T01:34:06.734Z,1.4
2023-03-26T01:35:10.216Z,1.4
2023-03-26T01:36:05.100Z,1.2
2023-03-26T01:37:09.526Z,1.2
2023-03-26T01:38:02.903Z,1.2
2023-03-26T01:39:07.542Z,1.2
2023-03-26T01:40:05.348Z,1.2
2023-03-26T01:41:07.584Z,1.2
2023-03-26T01:42:03.702Z,1.2
2023-03-26T01:43:07.865Z,1.2
2023-03-26T01:44:05.475Z,1.2
2023-03-26T01:45:06.287Z,1.2
2023-03-26T01:46:02.782Z,1.2
2023-03-26T01:47:00.357Z,1.2
2023-03-26T01:48:00.701Z,1.2
2023-03-26T01:49:01.226Z,1.2
2023-03-26T01:50:00.285Z,1.2
2023-03-26T01:51:00.324Z,1.2
2023-03-26T01:52:00.303Z,1.2
2023-03-26T01:53:00.513Z,1.2
2023-03-26T01:54:02.578Z,1.2
2023-03-26T01:55:00.534Z,1.2
2023-03-26T01:56:09.470Z,1.7
2023-03-26T01:57:10.260Z,1.7
2023-03-26T01:58:10.214Z,1.7
2023-03-26T01:59:07.787Z,1.7
2023-03-26T02:00:06.886Z,1.7
2023-03-26T02:01:05.465Z,1.7
2023-03-26T02:02:03.595Z,1.7
2023-03-26T02:03:10.307Z,1.7
2023-03-26T02:04:00.261Z,1.7
2023-03-26T02:05:06.363Z,1.7
2023-03-26T02:06:05.639Z,1.7
2023-03-26T02:07:10.211Z,1.7
2023-03-26T02:08:10.214Z,1.7
2023-03-26T02:09:03.354Z,1.7
2023-03-26T02:10:05.692Z,1.7
2023-03-26T02:11:03.102Z,1.7
2023-03-26T02:12:02.192Z,1.7
2023-03-26T02:13:00.308Z,1.7
2023-03-26T02:14:00.305Z,1.7
2023-03-26T02:15:00.427Z,1.7
2023-03-26T02:16:01.172Z,1.3
2023-03-26T02:17:00.298Z,1.3
2023-03-26T02:18:00.356Z,1.3
2023-03-26T02:19:00.490Z,1.3
2023-03-26T02:20:00.319Z,1.3
2023-03-26T02:21:00.670Z,1.3
2023-03-26T02:22:00.303Z,1.3
2023-03-26T02:23:00.258Z,1.3
2023-03-26T02:24:00.397Z,1.3
2023-03-26T02:25:00.260Z,1.3
2023-03-26T02:26:02.003Z,1.3
2023-03-26T02:27:00.252Z,1.3
2023-03-26T02:28:00.261Z,1.3
2023-03-26T02:29:00.829Z,1.3
2023-03-26T02:30:00.282Z,1.3
2023-03-26T02:31:00.486Z,1.3
2023-03-26T02:32:00.284Z,1.3
2023-03-26T02:33:00.381Z,1.3
2023-03-26T02:34:00.342Z,1.3
2023-03-26T02:35:00.408Z,1.3
2023-03-26T02:36:00.353Z,1.4
2023-03-26T02:37:00.280Z,1.4
2023-03-26T02:38:00.258Z,1.4
2023-03-26T02:39:00.320Z,1.4
2023-03-26T02:40:00.494Z,1.4
2023-03-26T02:41:00.658Z,1.4
2023-03-26T02:42:00.286Z,1.4
2023-03-26T02:43:00.264Z,1.4
2023-03-26T02:44:00.256Z,1.4
2023-03-26T02:45:00.283Z,1.4
2023-03-26T02:46:00.408Z,1.4
2023-03-26T02:47:00.293Z,1.4
2023-03-26T02:48:00.314Z,1.4
2023-03-26T02:49:00.273Z,1.4
2023-03-26T02:50:00.330Z,1.4
2023-03-26T02:51:01.028Z,1.4
2023-03-26T02:52:00.298Z,1.4
2023-03-26T02:53:00.273Z,1.4
2023-03-26T02:54:00.715Z,1.4
2023-03-26T02:55:00.558Z,1.5
2023-03-26T02:56:00.262Z,1.5
2023-03-26T02:57:00.544Z,1.5
2023-03-26T02:58:00.269Z,1.5
2023-03-26T02:59:00.514Z,1.5
2023-03-26T03:00:00.451Z,1.5
2023-03-26T03:01:00.268Z,1.5
2023-03-26T03:02:00.258Z,1.5
2023-03-26T03:03:00.464Z,1.5
2023-03-26T03:04:01.069Z,1.5
2023-03-26T03:05:00.257Z,1.5
2023-03-26T03:06:00.277Z,1.5
2023-03-26T03:07:00.264Z,1.5
2023-03-26T03:08:00.321Z,1.5
2023-03-26T03:09:00.288Z,1.5
2023-03-26T03:10:00.266Z,1.5
2023-03-26T03:11:01.864Z,1.5
2023-03-26T03:12:00.275Z,1.5
2023-03-26T03:13:00.263Z,1.5
2023-03-26T03:14:00.498Z,1.5
2023-03-26T03:15:00.273Z,1.5
2023-03-26T03:16:00.260Z,1.5
2023-03-26T03:17:00.335Z,1.5
2023-03-26T03:18:00.460Z,1.5
2023-03-26T03:19:00.265Z,1.5
2023-03-26T03:20:00.304Z,1.5
2023-03-26T03:21:00.554Z,1.5
2023-03-26T03:22:00.258Z,1.5
2023-03-26T03:23:00.419Z,1.5
2023-03-26T03:24:00.639Z,1.5
2023-03-26T03:25:00.472Z,1.5
2023-03-26T03:26:00.282Z,1.5
2023-03-26T03:27:00.289Z,1.5
2023-03-26T03:28:00.319Z,1.5
2023-03-26T03:29:00.267Z,1.5
2023-03-26T03:30:00.282Z,1.5
2023-03-26T03:31:00.285Z,1.5
2023-03-26T03:32:00.310Z,1.5
2023-03-26T03:33:00.741Z,1.5
2023-03-26T03:34:00.273Z,1.5
2023-03-26T03:35:00.267Z,1.4
2023-03-26T03:36:00.498Z,1.4
2023-03-26T03:37:00.299Z,1.4
2023-03-26T03:38:00.375Z,1.4
2023-03-26T03:39:00.264Z,1.4
2023-03-26T03:40:00.298Z,1.4
2023-03-26T03:41:00.289Z,1.4
2023-03-26T03:42:00.275Z,1.4
2023-03-26T03:43:00.288Z,1.4
2023-03-26T03:44:00.273Z,1.4
2023-03-26T03:45:00.355Z,1.4
2023-03-26T03:46:00.707Z,1.4
2023-03-26T03:47:00.267Z,1.4
2023-03-26T03:48:00.377Z,1.4
2023-03-26T03:49:00.411Z,1.4
2023-03-26T03:50:00.308Z,1.4
2023-03-26T03:51:00.271Z,1.4
2023-03-26T03:52:00.298Z,1.4
2023-03-26T03:53:00.313Z,1.4
2023-03-26T03:54:00.288Z,1.4
2023-03-26T03:55:00.287Z,1.5
2023-03-26T03:56:00.279Z,1.5
2023-03-26T03:57:00.363Z,1.5
2023-03-26T03:58:00.260Z,1.5
2023-03-26T03:59:00.402Z,1.5
2023-03-26T04:00:00.413Z,1.5
2023-03-26T04:01:00.563Z,1.5
2023-03-26T04:02:00.285Z,1.5
2023-03-26T04:03:00.349Z,1.5
2023-03-26T04:04:00.369Z,1.5
2023-03-26T04:05:01.090Z,1.5
2023-03-26T04:06:00.270Z,1.5
2023-03-26T04:07:00.287Z,1.5
2023-03-26T04:08:00.303Z,1.5
2023-03-26T04:09:00.260Z,1.5
2023-03-26T04:10:00.511Z,1.5
2023-03-26T04:11:00.285Z,1.5
2023-03-26T04:12:00.284Z,1.5
2023-03-26T04:13:00.352Z,1.5
2023-03-26T04:14:00.270Z,1.5
2023-03-26T04:15:00.299Z,1.2
2023-03-26T04:16:00.298Z,1.2
2023-03-26T04:17:00.291Z,1.2
2023-03-26T04:18:00.510Z,1.2
2023-03-26T04:19:00.314Z,1.2
2023-03-26T04:20:00.267Z,1.2
2023-03-26T04:21:00.283Z,1.2
2023-03-26T04:22:00.288Z,1.2
2023-03-26T04:23:00.284Z,1.2
2023-03-26T04:24:00.257Z,1.2
2023-03-26T04:25:00.282Z,1.2
2023-03-26T04:26:01.319Z,1.2
2023-03-26T04:27:00.308Z,1.2
2023-03-26T04:28:01.494Z,1.2
2023-03-26T04:29:02.242Z,1.2
2023-03-26T04:30:00.632Z,1.2
2023-03-26T04:31:00.961Z,1.2
2023-03-26T04:32:00.266Z,1.2
2023-03-26T04:33:01.623Z,1.2
2023-03-26T04:34:05.870Z,1.2
2023-03-26T04:35:00.946Z,1.4
2023-03-26T04:36:00.553Z,1.4
2023-03-26T04:37:01.078Z,1.4
2023-03-26T04:38:01.710Z,1.4
2023-03-26T04:39:01.854Z,1.4
2023-03-26T04:40:00.878Z,1.4
2023-03-26T04:41:01.587Z,1.4
2023-03-26T04:42:00.285Z,1.4
2023-03-26T04:43:00.503Z,1.4
2023-03-26T04:44:00.333Z,1.4
2023-03-26T04:45:00.258Z,1.4
2023-03-26T04:46:00.665Z,1.4
2023-03-26T04:47:00.315Z,1.4
2023-03-26T04:48:00.330Z,1.4
2023-03-26T04:49:00.333Z,1.4
2023-03-26T04:50:00.271Z,1.4
2023-03-26T04:51:00.328Z,1.4
2023-03-26T04:52:00.392Z,1.4
2023-03-26T04:53:00.291Z,1.4
2023-03-26T04:54:00.607Z,1.4
2023-03-26T04:55:00.476Z,1.4
2023-03-26T04:56:06.150Z,1.4
2023-03-26T04:57:02.997Z,1.4
2023-03-26T04:58:00.418Z,1.4
2023-03-26T04:59:00.748Z,1.4
2023-03-26T05:00:00.285Z,1.4
2023-03-26T05:01:01.176Z,1.4
2023-03-26T05:02:01.284Z,1.4
2023-03-26T05:03:00.284Z,1.4
2023-03-26T05:04:00.366Z,1.4
2023-03-26T05:05:00.277Z,1.4
2023-03-26T05:06:01.243Z,1.4
2023-03-26T05:07:00.278Z,1.4
2023-03-26T05:08:00.265Z,1.4
2023-03-26T05:09:00.309Z,1.4
2023-03-26T05:10:00.495Z,1.4
2023-03-26T05:11:00.257Z,1.4
2023-03-26T05:12:00.269Z,1.4
2023-03-26T05:13:00.288Z,1.4
2023-03-26T05:14:00.358Z,1.4
2023-03-26T05:15:00.274Z,1.1
2023-03-26T05:16:00.306Z,1.1
2023-03-26T05:17:00.733Z,1.1
2023-03-26T05:18:00.313Z,1.1
2023-03-26T05:19:00.324Z,1.1
2023-03-26T05:20:00.486Z,1.1
2023-03-26T05:21:00.415Z,1.1
2023-03-26T05:22:00.271Z,1.1
2023-03-26T05:23:00.266Z,1.1
2023-03-26T05:24:00.270Z,1.1
2023-03-26T05:25:00.283Z,1.1
2023-03-26T05:26:00.364Z,1.1
2023-03-26T05:27:00.275Z,1.1
2023-03-26T05:28:00.660Z,1.1
2023-03-26T05:29:00.256Z,1.1
2023-03-26T05:30:00.728Z,1.1
2023-03-26T05:31:00.613Z,1.1
2023-03-26T05:32:00.272Z,1.1
2023-03-26T05:33:00.352Z,1.1
2023-03-26T05:34:00.317Z,1.1
2023-03-26T05:35:00.576Z,1.4
2023-03-26T05:36:02.693Z,1.4
2023-03-26T05:37:02.174Z,1.4
2023-03-26T05:38:00.280Z,1.4
2023-03-26T05:39:00.268Z,1.4
2023-03-26T05:40:00.263Z,1.4
2023-03-26T05:41:01.989Z,1.4
2023-03-26T05:42:00.551Z,1.4
2023-03-26T05:43:00.300Z,1.4
2023-03-26T05:44:00.261Z,1.4
2023-03-26T05:45:00.262Z,1.4
2023-03-26T05:46:00.407Z,1.4
2023-03-26T05:47:00.259Z,1.4
2023-03-26T05:48:00.310Z,1.4
2023-03-26T05:49:00.282Z,1.4
2023-03-26T05:50:00.307Z,1.4
2023-03-26T05:51:00.262Z,1.4
2023-03-26T05:52:00.262Z,1.4
2023-03-26T05:53:00.261Z,1.4
2023-03-26T05:54:00.287Z,1.4
2023-03-26T05:55:00.277Z,1.4
2023-03-26T05:56:00.266Z,1.4
2023-03-26T05:57:00.281Z,1.4
2023-03-26T05:58:00.299Z,1.4
2023-03-26T05:59:00.270Z,1.4
2023-03-26T06:00:00.668Z,1.4
2023-03-26T06:01:01.776Z,1.4
2023-03-26T06:02:00.263Z,1.4
2023-03-26T06:03:00.460Z,1.4
2023-03-26T06:04:00.426Z,1.4
2023-03-26T06:05:00.301Z,1.4
2023-03-26T06:06:00.313Z,1.4
2023-03-26T06:07:00.257Z,1.4
2023-03-26T06:08:00.265Z,1.4
2023-03-26T06:09:01.057Z,1.4
2023-03-26T06:10:00.281Z,1.4
2023-03-26T06:11:01.182Z,1.4
2023-03-26T06:12:00.266Z,1.4
2023-03-26T06:13:00.278Z,1.4
2023-03-26T06:14:00.298Z,1.4
2023-03-26T06:15:00.270Z,1.3
2023-03-26T06:16:00.351Z,1.3
2023-03-26T06:17:00.385Z,1.3
2023-03-26T06:18:00.377Z,1.3
2023-03-26T06:19:00.368Z,1.3
2023-03-26T06:20:00.302Z,1.3
2023-03-26T06:21:00.406Z,1.3
2023-03-26T06:22:00.298Z,1.3
2023-03-26T06:23:00.298Z,1.3
2023-03-26T06:24:00.279Z,1.3
2023-03-26T06:25:00.305Z,1.3
2023-03-26T06:26:00.297Z,1.3
2023-03-26T06:27:00.277Z,1.3
2023-03-26T06:28:00.282Z,1.3
2023-03-26T06:29:00.262Z,1.3
2023-03-26T06:30:00.264Z,1.3
2023-03-26T06:31:00.329Z,1.3
2023-03-26T06:32:12.416Z,1.3
2023-03-26T06:33:00.333Z,1.3
2023-03-26T06:34:00.283Z,1.3
2023-03-26T06:35:00.278Z,1.3
2023-03-26T06:36:00.397Z,1.3
2023-03-26T06:37:00.274Z,1.3
2023-03-26T06:38:00.889Z,1.3
2023-03-26T06:39:00.348Z,1.3
2023-03-26T06:40:00.421Z,1.3
2023-03-26T06:41:00.957Z,1.3
2023-03-26T06:42:00.282Z,1.3
2023-03-26T06:43:08.174Z,1.3
2023-03-26T06:44:00.312Z,1.3
2023-03-26T06:45:00.293Z,1.3
2023-03-26T06:46:00.975Z,1.3
2023-03-26T06:47:00.308Z,1.3
2023-03-26T06:48:00.444Z,1.3
2023-03-26T06:49:00.264Z,1.3
2023-03-26T06:50:00.264Z,1.3
2023-03-26T06:51:00.256Z,1.3
2023-03-26T06:52:00.272Z,1.3
2023-03-26T06:53:00.308Z,1.3
2023-03-26T06:54:00.276Z,1.3
2023-03-26T06:55:00.256Z,1.2
2023-03-26T06:56:00.268Z,1.2
2023-03-26T06:57:00.351Z,1.2
2023-03-26T06:58:00.337Z,1.2
2023-03-26T06:59:00.260Z,1.2
2023-03-26T07:00:00.388Z,1.2
2023-03-26T07:01:00.301Z,1.2
2023-03-26T07:02:00.269Z,1.2
2023-03-26T07:03:02.111Z,1.2
2023-03-26T07:04:00.802Z,1.2
2023-03-26T07:05:00.285Z,1.2
2023-03-26T07:06:00.320Z,1.2
2023-03-26T07:07:00.272Z,1.2
2023-03-26T07:08:00.269Z,1.2
2023-03-26T07:09:00.290Z,1.2
2023-03-26T07:10:00.527Z,1.2
2023-03-26T07:11:00.278Z,1.2
2023-03-26T07:12:00.295Z,1.2
2023-03-26T07:13:00.312Z,1.2
2023-03-26T07:14:00.307Z,1.4
2023-03-26T07:15:02.140Z,1.4
2023-03-26T07:16:00.332Z,1.4
2023-03-26T07:17:00.329Z,1.4
2023-03-26T07:18:00.315Z,1.4
2023-03-26T07:19:00.276Z,1.4
2023-03-26T07:20:00.449Z,1.4
2023-03-26T07:21:00.442Z,1.4
2023-03-26T07:22:00.395Z,1.4
2023-03-26T07:23:00.464Z,1.4
2023-03-26T07:24:00.435Z,1.4
2023-03-26T07:25:00.570Z,1.4
2023-03-26T07:26:10.197Z,1.4
2023-03-26T07:27:05.751Z,1.4
2023-03-26T07:28:10.195Z,1.4
2023-03-26T07:29:10.214Z,1.4
2023-03-26T07:30:03.613Z,1.4
2023-03-26T07:31:10.216Z,1.4
2023-03-26T07:32:06.933Z,1.4
2023-03-26T07:33:04.358Z,1.4
2023-03-26T07:34:00.261Z,1.3
2023-03-26T07:35:09.506Z,1.3
2023-03-26T07:36:10.218Z,1.3
2023-03-26T07:37:03.658Z,1.3
2023-03-26T07:38:10.198Z,1.3
2023-03-26T07:39:07.455Z,1.3
2023-03-26T07:40:08.924Z,1.3
2023-03-26T07:41:10.219Z,1.3
2023-03-26T07:42:10.210Z,1.3
2023-03-26T07:43:04.238Z,1.3
2023-03-26T07:44:10.206Z,1.3
2023-03-26T07:45:08.969Z,1.3
2023-03-26T07:46:00.380Z,1.3
2023-03-26T07:47:01.310Z,1.3
2023-03-26T07:48:00.526Z,1.3
2023-03-26T07:49:00.378Z,1.3
2023-03-26T07:50:00.407Z,1.3
2023-03-26T07:51:00.417Z,1.3
2023-03-26T07:52:00.335Z,1.3
2023-03-26T07:53:00.390Z,1.3
2023-03-26T07:54:00.806Z,1.2
2023-03-26T07:55:00.433Z,1.2
2023-03-26T07:56:10.224Z,1.2
2023-03-26T07:57:04.368Z,1.2
2023-03-26T07:58:01.271Z,1.2
2023-03-26T07:59:00.255Z,1.2
2023-03-26T08:00:05.437Z,1.2
2023-03-26T08:01:04.603Z,1.2
2023-03-26T08:02:03.518Z,1.2
2023-03-26T08:03:10.352Z,1.2
2023-03-26T08:04:24.337Z,1.2
2023-03-26T08:05:03.586Z,1.2
2023-03-26T08:06:10.198Z,1.2
2023-03-26T08:07:00.257Z,1.2
2023-03-26T08:08:00.489Z,1.2
2023-03-26T08:09:01.284Z,1.2
2023-03-26T08:10:03.687Z,1.2
2023-03-26T09:01:10.210Z,1.4
2023-03-26T09:02:10.260Z,1.4
2023-03-26T09:03:01.359Z,1.4
2023-03-26T09:04:10.245Z,1.4
2023-03-26T09:05:10.213Z,1.8
2023-03-26T09:06:01.279Z,1.8
2023-03-26T09:07:10.193Z,1.8
2023-03-26T09:08:10.209Z,1.8
2023-03-26T09:09:01.290Z,1.8
2023-03-26T09:10:10.207Z,1.8
2023-03-26T09:11:10.204Z,1.8
2023-03-26T09:12:10.194Z,1.8
2023-03-26T09:13:00.253Z,1.8
2023-03-26T09:14:10.218Z,1.8
2023-03-26T09:15:10.215Z,1.8
2023-03-26T09:16:03.515Z,1.8
2023-03-26T09:17:10.208Z,1.8
2023-03-26T09:18:10.243Z,1.8
2023-03-26T09:19:00.260Z,1.8
2023-03-26T09:20:09.135Z,1.8
2023-03-26T09:21:10.229Z,1.8
2023-03-26T09:22:10.214Z,1.8
2023-03-26T09:23:10.197Z,1.8
2023-03-26T09:24:10.234Z,1.8
2023-03-26T09:25:10.196Z,1.9
2023-03-26T09:26:10.209Z,1.9
2023-03-26T09:27:10.196Z,1.9
2023-03-26T09:28:01.273Z,1.9
2023-03-26T09:29:01.251Z,1.9
2023-03-26T09:30:10.200Z,1.9
2023-03-26T09:31:00.259Z,1.9
2023-03-26T09:32:10.212Z,1.9
2023-03-26T09:33:01.286Z,1.9
2023-03-26T09:34:01.287Z,1.9
2023-03-26T09:35:12.637Z,1.9
2023-03-26T09:36:10.221Z,1.9
2023-03-26T09:37:00.246Z,1.9
2023-03-26T09:38:10.189Z,1.9
2023-03-26T09:39:03.519Z,1.9
2023-03-26T09:40:10.232Z,1.9
2023-03-26T09:41:06.976Z,1.9
2023-03-26T09:42:00.280Z,1.9
2023-03-26T09:43:10.196Z,1.9
2023-03-26T09:44:10.221Z,1.9
2023-03-26T09:45:07.296Z,1.1
2023-03-26T09:46:00.282Z,1.1
2023-03-26T09:47:00.263Z,1.1
2023-03-26T09:48:10.214Z,1.1
2023-03-26T09:49:10.218Z,1.1
2023-03-26T09:50:10.203Z,1.1
2023-03-26T09:51:10.205Z,1.1
2023-03-26T09:52:10.201Z,1.1
2023-03-26T09:53:10.229Z,1.1
2023-03-26T09:54:10.201Z,1.1
2023-03-26T09:56:07.500Z,1.1
2023-03-26T09:57:09.792Z,1.1
2023-03-26T09:58:07.654Z,1.1
2023-03-26T09:59:07.465Z,1.1
2023-03-26T10:00:07.901Z,1.1
2023-03-26T10:01:07.212Z,1.1
2023-03-26T10:02:03.564Z,1.1
2023-03-26T10:03:10.216Z,1.1
2023-03-26T10:04:10.192Z,1.1
2023-03-26T10:05:10.335Z,1.1
2023-03-26T10:06:08.872Z,1.1
2023-03-26T10:07:10.191Z,1.1
2023-03-26T10:08:08.930Z,1.1
2023-03-26T10:09:00.254Z,1.1
2023-03-26T10:10:03.247Z,1.1
2023-03-26T10:11:10.221Z,1.1
2023-03-26T10:12:00.258Z,1.1
2023-03-26T10:13:14.595Z,1.1
2023-03-26T10:14:00.257Z,1.1
2023-03-26T10:15:00.245Z,1.1
2023-03-26T10:16:10.281Z,1.1
2023-03-26T10:17:10.209Z,1.1
2023-03-26T10:18:27.677Z,1.1
2023-03-26T10:19:07.667Z,1.1
2023-03-26T10:20:04.762Z,1.1
2023-03-26T10:21:01.280Z,1.1
2023-03-26T10:22:10.192Z,1.1
2023-03-26T10:23:00.253Z,1.1
2023-03-26T10:24:07.349Z,1.1
2023-03-26T10:25:00.238Z,1.1
2023-03-26T10:26:10.204Z,1.1
2023-03-26T10:27:10.149Z,1.1
2023-03-26T10:28:08.307Z,1.1
2023-03-26T10:29:08.144Z,1.1
2023-03-26T10:30:00.238Z,1.1
2023-03-26T10:31:07.284Z,1.1
2023-03-26T10:32:10.202Z,1.1
2023-03-26T10:33:01.341Z,1.1
2023-03-26T10:34:10.204Z,1.1
2023-03-26T10:35:01.299Z,1.1
2023-03-26T10:36:00.318Z,1.1
2023-03-26T10:37:05.557Z,1.1
2023-03-26T10:38:08.410Z,1.1
2023-03-26T10:39:10.186Z,1.1
2023-03-26T10:40:00.263Z,1.1
2023-03-26T10:41:04.831Z,1.1
2023-03-26T10:42:00.246Z,1.1
2023-03-26T10:43:12.545Z,1.1
2023-03-26T10:44:10.193Z,1.1
2023-03-26T10:45:01.265Z,1.1
2023-03-26T10:46:00.291Z,1.1
2023-03-26T10:47:10.188Z,1.1
2023-03-26T10:48:10.203Z,1.1
2023-03-26T10:49:10.199Z,1.1
2023-03-26T10:50:10.206Z,1.1
2023-03-26T10:51:10.207Z,1.1
2023-03-26T10:52:03.930Z,1.1
2023-03-26T10:53:03.516Z,1.1
2023-03-26T10:54:06.932Z,1.1
2023-03-26T10:55:09.128Z,1.1
2023-03-26T10:56:08.035Z,1.1
2023-03-26T10:57:04.727Z,1.1
2023-03-26T10:58:10.199Z,1.1
2023-03-26T10:59:04.609Z,1.1
2023-03-26T11:00:04.740Z,1.1
2023-03-26T11:01:04.066Z,1.1
2023-03-26T11:02:00.400Z,1.1
2023-03-26T11:03:10.232Z,1.1
2023-03-26T11:04:07.129Z,1.1
2023-03-26T11:05:10.252Z,0.9
2023-03-26T11:06:10.273Z,0.9
2023-03-26T11:07:00.240Z,0.9
2023-03-26T11:08:05.282Z,0.9
2023-03-26T11:09:10.209Z,0.9
2023-03-26T11:10:05.307Z,0.9
2023-03-26T11:11:10.244Z,0.9
2023-03-26T11:12:26.385Z,0.9
2023-03-26T11:13:10.191Z,0.9
2023-03-26T11:14:10.192Z,0.9
2023-03-26T11:15:05.194Z,0.9
2023-03-26T11:16:03.723Z,0.9
2023-03-26T11:17:06.970Z,0.9
2023-03-26T11:18:03.552Z,0.9
2023-03-26T11:19:05.524Z,0.9
2023-03-26T11:20:10.192Z,0.9
2023-03-26T11:21:18.537Z,0.9
2023-03-26T11:22:07.730Z,0.9
2023-03-26T11:23:07.667Z,0.9
2023-03-26T11:24:10.193Z,0.9
2023-03-26T11:25:10.227Z,1.3
2023-03-26T11:26:10.213Z,1.3
2023-03-26T11:27:14.826Z,1.3
2023-03-26T11:28:09.770Z,1.3
2023-03-26T11:29:31.685Z,1.3
2023-03-26T11:30:00.252Z,1.3
2023-03-26T11:31:10.229Z,1.3
2023-03-26T11:32:10.190Z,1.3
2023-03-26T11:33:01.619Z,1.3
2023-03-26T11:34:02.648Z,1.3
2023-03-26T11:35:10.192Z,1.3
2023-03-26T11:36:08.892Z,1.3
2023-03-26T11:37:01.883Z,1.3
2023-03-26T11:38:04.609Z,1.3
2023-03-26T11:39:02.119Z,1.3
2023-03-26T11:40:03.260Z,1.3
2023-03-26T11:41:00.937Z,1.3
2023-03-26T11:42:09.706Z,1.3
2023-03-26T11:43:02.117Z,1.3
2023-03-26T11:44:04.539Z,1.3
2023-03-26T11:45:04.525Z,0.9
2023-03-26T11:46:02.366Z,0.9
2023-03-26T11:47:09.579Z,0.9
2023-03-26T11:48:05.275Z,0.9
2023-03-26T11:49:03.057Z,0.9
2023-03-26T11:50:02.210Z,0.9
2023-03-26T11:51:04.596Z,0.9
2023-03-26T11:52:00.320Z,0.9
2023-03-26T11:53:10.198Z,0.9
2023-03-26T11:54:00.955Z,0.9
2023-03-26T11:55:00.279Z,0.9
2023-03-26T11:56:03.310Z,0.9
2023-03-26T11:57:10.234Z,0.9
2023-03-26T11:58:02.014Z,0.9
2023-03-26T11:59:00.256Z,0.9
2023-03-26T12:00:04.424Z,0.9
2023-03-26T12:01:02.768Z,0.9
2023-03-26T12:02:03.555Z,0.9
2023-03-26T12:03:00.311Z,0.9
2023-03-26T12:04:07.786Z,1.1
2023-03-26T12:05:10.193Z,1.1
2023-03-26T12:06:00.289Z,1.1
2023-03-26T12:07:10.209Z,1.1
2023-03-26T12:08:01.953Z,1.1
2023-03-26T12:09:01.178Z,1.1
2023-03-26T12:10:18.144Z,1.1
2023-03-26T12:11:04.042Z,1.1
2023-03-26T12:12:02.343Z,1.1
2023-03-26T12:13:01.755Z,1.1
2023-03-26T12:14:01.712Z,1.1
2023-03-26T12:15:00.375Z,1.1
2023-03-26T12:16:05.379Z,1.1
2023-03-26T12:17:03.219Z,1.1
2023-03-26T12:18:10.221Z,1.1
2023-03-26T12:19:01.883Z,1.1
2023-03-26T12:20:00.751Z,1.1
2023-03-26T12:21:01.550Z,1.1
2023-03-26T12:22:00.303Z,1.1
2023-03-26T12:23:01.613Z,1.1
2023-03-26T12:24:01.718Z,1.1
2023-03-26T12:25:01.412Z,1.0
2023-03-26T12:26:10.068Z,1.0
2023-03-26T12:27:10.201Z,1.0
2023-03-26T12:28:01.254Z,1.0
2023-03-26T12:29:05.570Z,1.0
2023-03-26T12:30:10.202Z,1.0
2023-03-26T12:31:01.734Z,1.0
2023-03-26T12:32:10.184Z,1.0
2023-03-26T12:33:02.918Z,1.0
2023-03-26T12:34:10.184Z,1.0
2023-03-26T12:35:04.937Z,1.0
2023-03-26T12:36:10.244Z,1.0
2023-03-26T12:37:01.144Z,1.0
2023-03-26T12:38:10.193Z,1.0
2023-03-26T12:39:16.862Z,1.0
2023-03-26T12:40:13.184Z,1.0
2023-03-26T12:44:42.404Z,1.0
2023-03-26T12:44:51.172Z,1.0
2023-03-26T12:44:53.354Z,0.8
2023-03-26T12:44:56.578Z,1.0
2023-03-26T12:45:00.944Z,0.8
2023-03-26T12:47:54.604Z,0.8
2023-03-26T12:47:57.448Z,0.8
2023-03-26T12:48:03.740Z,0.8
2023-03-26T12:49:02.941Z,0.8
2023-03-26T12:50:00.336Z,0.8
2023-03-26T12:51:07.056Z,0.8
2023-03-26T12:52:08.222Z,0.8
2023-03-26T12:53:00.252Z,0.8
2023-03-26T12:54:10.205Z,0.8
2023-03-26T12:55:03.519Z,0.8
2023-03-26T12:56:07.601Z,0.8
2023-03-26T12:57:12.132Z,0.8
2023-03-26T12:59:10.203Z,0.8
2023-03-26T13:00:10.214Z,0.8
2023-03-26T13:01:10.247Z,0.8
2023-03-26T13:02:06.237Z,0.8
2023-03-26T13:02:24.127Z,0.8
2023-03-26T13:03:00.386Z,0.8
2023-03-26T13:04:07.662Z,0.9
2023-03-26T13:05:08.365Z,0.9
2023-03-26T13:06:00.261Z,0.9
2023-03-26T13:07:05.520Z,0.9
2023-03-26T13:08:00.274Z,0.9
2023-03-26T13:09:07.150Z,0.9
2023-03-26T13:10:10.207Z,0.9
2023-03-26T13:11:10.186Z,0.9
2023-03-26T13:12:10.188Z,0.9
2023-03-26T13:13:10.208Z,0.9
2023-03-26T13:14:10.207Z,0.9
2023-03-26T13:15:03.511Z,0.9
2023-03-26T13:16:06.580Z,0.9
2023-03-26T13:17:10.230Z,0.9
2023-03-26T13:18:10.203Z,0.9
2023-03-26T13:19:10.205Z,0.9
2023-03-26T13:20:03.363Z,0.9
2023-03-26T13:21:10.228Z,0.9
2023-03-26T13:22:08.659Z,0.9
2023-03-26T13:23:10.184Z,0.9
2023-03-26T13:24:10.186Z,2.0
2023-03-26T13:25:08.224Z,2.0
2023-03-26T13:26:10.210Z,2.0
2023-03-26T13:27:07.767Z,2.0
2023-03-26T13:28:07.116Z,2.0
2023-03-26T13:29:07.558Z,2.0
2023-03-26T13:30:10.189Z,2.0
2023-03-26T13:31:10.246Z,2.0
2023-03-26T13:32:07.408Z,2.0
2023-03-26T13:33:10.206Z,2.0
2023-03-26T13:34:07.618Z,2.0
2023-03-26T13:35:08.136Z,2.0
2023-03-26T13:36:14.311Z,2.0
2023-03-26T13:37:01.309Z,2.0
2023-03-26T13:38:10.222Z,2.0
2023-03-26T13:39:10.186Z,2.0
2023-03-26T13:40:10.219Z,2.0
2023-03-26T13:41:08.524Z,2.0
2023-03-26T13:42:00.238Z,2.0
2023-03-26T13:43:10.206Z,2.0
2023-03-26T13:44:10.190Z,1.0
2023-03-26T13:45:07.642Z,1.0
2023-03-26T13:46:10.253Z,1.0
2023-03-26T13:47:01.281Z,1.0
2023-03-26T13:48:01.745Z,1.0
2023-03-26T13:49:04.131Z,1.0
2023-03-26T13:50:10.206Z,1.0
2023-03-26T13:51:07.760Z,1.0
2023-03-26T13:52:04.025Z,1.0
2023-03-26T13:53:05.284Z,1.0
2023-03-26T13:54:10.191Z,1.0
2023-03-26T13:55:10.188Z,1.0
2023-03-26T13:56:00.268Z,1.0
2023-03-26T13:57:10.249Z,1.0
2023-03-26T13:58:05.272Z,1.0
2023-03-26T13:59:02.084Z,1.0
2023-03-26T14:00:01.254Z,1.0
2023-03-26T14:01:05.864Z,1.0
2023-03-26T14:02:04.657Z,1.0
2023-03-26T14:03:07.798Z,1.0
2023-03-26T14:04:00.308Z,0.9
2023-03-26T14:05:10.252Z,0.9
2023-03-26T14:06:05.434Z,0.9
2023-03-26T14:07:03.519Z,0.9
2023-03-26T14:08:09.522Z,0.9
2023-03-26T14:09:04.446Z,0.9
2023-03-26T14:10:03.664Z,0.9
2023-03-26T14:11:10.209Z,0.9
2023-03-26T14:12:21.490Z,0.9
2023-03-26T14:13:03.521Z,0.9
2023-03-26T14:14:04.684Z,0.9
2023-03-26T14:15:10.210Z,0.9
2023-03-26T14:16:07.417Z,0.9
2023-03-26T14:17:03.328Z,0.9
2023-03-26T14:18:05.647Z,0.9
2023-03-26T14:19:10.187Z,0.9
2023-03-26T14:20:10.214Z,0.9
2023-03-26T14:21:10.212Z,0.9
2023-03-26T14:22:10.191Z,0.9
2023-03-26T14:23:07.783Z,0.9
2023-03-26T14:24:00.253Z,1.1
2023-03-26T14:25:10.197Z,1.1
2023-03-26T14:26:06.168Z,1.1
2023-03-26T14:27:10.190Z,1.1
2023-03-26T14:28:03.526Z,1.1
2023-03-26T14:29:10.201Z,1.1
2023-03-26T14:30:10.211Z,1.1
2023-03-26T14:31:05.634Z,1.1
2023-03-26T14:32:10.201Z,1.1
2023-03-26T14:33:10.234Z,1.1
2023-03-26T14:34:00.240Z,1.1
2023-03-26T14:35:06.114Z,1.1
2023-03-26T14:36:10.243Z,1.1
2023-03-26T14:37:01.265Z,1.1